Terminal Aerodrome Forecast
Issued by NWS

Home | Current Version | Previous Version | Text Only | Print | Product List | Glossary On
Versions: 1 2 3 4 5 6 7 8 9 10 11 12 13
008
FTUS42 TJSJ 071120
TAFKPK
TAF
TKPK 071120Z 0712/0812 05011KT P6SM FEW022
     FM071300 06012KT P6SM FEW020 SCT040
     FM072300 05005KT P6SM FEW018=

USA.gov is the U.S. government's official web portal to all federal, state and local government web resources and services.